createdAt,value
2023-07-27T00:11:34.851Z,100.00
2023-07-27T00:26:37.074Z,100.00
2023-07-27T00:41:42.974Z,100.00
2023-07-27T00:56:45.266Z,100.00
2023-07-27T01:11:47.174Z,100.00
2023-07-27T01:27:16.070Z,100.00
2023-07-27T01:42:19.536Z,100.00
2023-07-27T01:57:21.516Z,100.00
2023-07-27T02:12:31.414Z,100.00
2023-07-27T02:27:33.382Z,100.00
2023-07-27T02:42:35.420Z,100.00
2023-07-27T02:57:37.482Z,100.00
2023-07-27T03:12:39.401Z,100.00
2023-07-27T03:27:41.472Z,100.00
2023-07-27T03:42:43.703Z,100.00
2023-07-27T03:57:48.207Z,100.00
2023-07-27T04:12:50.189Z,100.00
2023-07-27T04:27:52.769Z,100.00
2023-07-27T04:42:54.997Z,100.00
2023-07-27T04:57:57.019Z,100.00
2023-07-27T05:12:58.796Z,100.00
2023-07-27T05:28:00.775Z,100.00
2023-07-27T05:43:02.803Z,100.00
2023-07-27T05:58:18.585Z,100.00
2023-07-27T06:13:25.808Z,94.63
2023-07-27T06:28:28.736Z,87.25
2023-07-27T06:43:30.765Z,84.74
2023-07-27T06:58:35.693Z,80.15
2023-07-27T07:13:37.578Z,77.83
2023-07-27T07:28:40.927Z,75.17
2023-07-27T07:43:43.051Z,74.81
2023-07-27T07:58:48.426Z,71.77
2023-07-27T08:13:53.861Z,69.72
2023-07-27T08:28:55.829Z,67.17
2023-07-27T08:44:00.122Z,66.64
2023-07-27T08:59:02.466Z,63.89
2023-07-27T09:14:07.177Z,60.96
2023-07-27T09:29:09.919Z,55.42
2023-07-27T09:44:19.738Z,52.04
2023-07-27T09:59:24.866Z,50.35
2023-07-27T10:14:30.412Z,47.48
2023-07-27T10:29:33.018Z,43.34
2023-07-27T10:44:43.802Z,38.60
2023-07-27T10:59:50.653Z,40.27
2023-07-27T11:14:53.443Z,40.09
2023-07-27T11:29:55.354Z,39.20
2023-07-27T11:45:01.348Z,39.94
2023-07-27T12:00:16.562Z,40.00
2023-07-27T12:15:32.617Z,40.00
2023-07-27T12:30:34.849Z,40.92
2023-07-27T12:45:38.658Z,41.33
2023-07-27T13:00:40.786Z,42.38
2023-07-27T13:15:42.752Z,42.53
2023-07-27T13:30:50.456Z,42.93
2023-07-27T13:45:53.009Z,42.96
2023-07-27T14:00:57.814Z,42.83
2023-07-27T14:16:00.063Z,45.23
2023-07-27T14:31:13.145Z,48.30
2023-07-27T14:46:16.482Z,50.14
2023-07-27T15:01:19.796Z,51.10
2023-07-27T15:16:21.899Z,52.97
2023-07-27T15:31:23.902Z,54.21
2023-07-27T15:46:26.024Z,55.68
2023-07-27T16:01:35.757Z,57.02
2023-07-27T16:16:42.635Z,59.58
2023-07-27T16:31:46.300Z,63.97
2023-07-27T16:46:50.390Z,68.34
2023-07-27T17:01:53.118Z,72.19
2023-07-27T17:16:57.286Z,72.47
2023-07-27T17:32:02.021Z,71.88
2023-07-27T17:47:04.361Z,70.30
2023-07-27T18:02:06.481Z,69.69
2023-07-27T18:17:08.971Z,71.85
2023-07-27T18:32:12.260Z,73.13
2023-07-27T18:47:14.348Z,86.80
2023-07-27T19:02:16.275Z,100.00
2023-07-27T19:17:22.944Z,100.00
2023-07-27T19:32:25.605Z,100.00
2023-07-27T19:47:28.041Z,100.00
2023-07-27T20:02:30.161Z,100.00
2023-07-27T20:17:32.487Z,100.00
2023-07-27T20:32:34.554Z,100.00
2023-07-27T20:47:37.457Z,100.00
2023-07-27T21:02:39.685Z,100.00
2023-07-27T21:17:42.759Z,100.00
2023-07-27T21:32:44.763Z,100.00
2023-07-27T21:47:46.884Z,100.00
2023-07-27T22:02:48.904Z,100.00
2023-07-27T22:17:51.002Z,100.00
2023-07-27T22:32:54.067Z,100.00
2023-07-27T22:47:56.131Z,100.00
2023-07-27T23:02:58.514Z,100.00
2023-07-27T23:18:00.520Z,100.00
2023-07-27T23:33:02.796Z,100.00
2023-07-27T23:48:05.158Z,100.00
